KLM219 EHAM-KLAS
Flight info
| Callsign | KLM219 |
|---|---|
| Flight time | N/A |
| Altitude | 34000 |
| Route | BERGI L602 NALAX L46 GETNO DCT APSOV DCT SUNOT/M084F340 DCT 58N020W 60N030W 60N040W 58N050W DCT CUDDY DCT PORGY/N0482F340 DCT YDP/N0478F360 DCT 56N070W 55N080W 52N090W DCT HML/N0491F380 DCT BIS DCT DDY DCT CKW DCT MTU DCT BCE BLAID2 |
| Aircraft | B77W/H-SDE1E2E3FGHIJ2J3J4J5M1RWXY/LB1D1 |
Departure
| Time | 2026-04-28 16:57 |
|---|---|
| Airport | Amsterdam Airport Schiphol (EHAM) |
Arrival
| Time | N/A |
|---|---|
| Airport | Harry Reid International Airport (KLAS) |
| Time | Latitude | Longitude | Altitude | Speed | Heading |
|---|---|---|---|---|---|
| 2026-04-28 16:20 | 52.31371 | 4.76174 | 4 ft | 0 kts | 178° |
| 2026-04-28 16:46 | 52.31390 | 4.76173 | 4 ft | 4 kts | 180° |
| 2026-04-28 16:46 | 52.31418 | 4.76174 | 5 ft | 4 kts | 179° |
| 2026-04-28 16:46 | 52.31443 | 4.76169 | 6 ft | 4 kts | 149° |
| 2026-04-28 16:46 | 52.31452 | 4.76146 | 6 ft | 4 kts | 89° |
| 2026-04-28 16:47 | 52.31450 | 4.76102 | 5 ft | 4 kts | 86° |
| 2026-04-28 16:47 | 52.31450 | 4.76093 | 4 ft | 0 kts | 86° |
| 2026-04-28 16:52 | 52.31451 | 4.76120 | 5 ft | 7 kts | 86° |
| 2026-04-28 16:52 | 52.31456 | 4.76252 | 4 ft | 17 kts | 86° |
| 2026-04-28 16:53 | 52.31470 | 4.76425 | 4 ft | 14 kts | 64° |
| 2026-04-28 16:53 | 52.31531 | 4.76496 | 4 ft | 8 kts | 336° |
| 2026-04-28 16:53 | 52.31544 | 4.76401 | 4 ft | 13 kts | 266° |
| 2026-04-28 16:53 | 52.31537 | 4.76192 | 4 ft | 24 kts | 266° |
| 2026-04-28 16:54 | 52.31527 | 4.75901 | 4 ft | 29 kts | 267° |
| 2026-04-28 16:54 | 52.31515 | 4.75529 | 4 ft | 37 kts | 267° |
| 2026-04-28 16:54 | 52.31503 | 4.75189 | 3 ft | 24 kts | 266° |
| 2026-04-28 16:54 | 52.31496 | 4.74990 | 4 ft | 29 kts | 267° |
| 2026-04-28 16:55 | 52.31518 | 4.74683 | 4 ft | 15 kts | 326° |
| 2026-04-28 16:55 | 52.31554 | 4.74667 | 4 ft | 0 kts | 354° |
| 2026-04-28 16:55 | 52.31565 | 4.74665 | 4 ft | 5 kts | 354° |
| 2026-04-28 16:56 | 52.31625 | 4.74668 | 4 ft | 12 kts | 12° |
| 2026-04-28 16:56 | 52.31664 | 4.74736 | 4 ft | 10 kts | 77° |
| 2026-04-28 16:56 | 52.31674 | 4.74981 | 1 ft | 36 kts | 86° |
| 2026-04-28 16:56 | 52.31706 | 4.75803 | 3 ft | 113 kts | 86° |
| 2026-04-28 16:57 | 52.31769 | 4.77492 | 18 ft | 179 kts | 83° |
| 2026-04-28 16:57 | 52.31804 | 4.79654 | 447 ft | 198 kts | 86° |
| 2026-04-28 16:57 | 52.31819 | 4.81970 | 1108 ft | 203 kts | 85° |
| 2026-04-28 16:57 | 52.31985 | 4.84162 | 2149 ft | 193 kts | 66° |
| 2026-04-28 16:58 | 52.32952 | 4.85784 | 2446 ft | 218 kts | 25° |
| 2026-04-28 16:58 | 52.34515 | 4.85845 | 2976 ft | 242 kts | 346° |
| 2026-04-28 16:58 | 52.35922 | 4.84146 | 3497 ft | 268 kts | 309° |
| 2026-04-28 16:58 | 52.36923 | 4.81508 | 3987 ft | 274 kts | 313° |
| 2026-04-28 16:59 | 52.38335 | 4.79448 | 4569 ft | 274 kts | 328° |
| 2026-04-28 16:59 | 52.39812 | 4.77464 | 5133 ft | 284 kts | 319° |
| 2026-04-28 16:59 | 52.41200 | 4.75138 | 5938 ft | 286 kts | 317° |
| 2026-04-28 16:59 | 52.42581 | 4.72788 | 6798 ft | 285 kts | 316° |
| 2026-04-28 17:00 | 52.43969 | 4.70477 | 7579 ft | 287 kts | 317° |
| 2026-04-28 17:00 | 52.45383 | 4.68154 | 8300 ft | 290 kts | 318° |
| 2026-04-28 17:00 | 52.46901 | 4.65966 | 8933 ft | 291 kts | 328° |
| 2026-04-28 17:00 | 52.48582 | 4.64138 | 9762 ft | 289 kts | 331° |
| 2026-04-28 17:01 | 52.50301 | 4.62387 | 10460 ft | 294 kts | 331° |
| 2026-04-28 17:01 | 52.52080 | 4.60572 | 10797 ft | 312 kts | 330° |
| 2026-04-28 17:01 | 52.53981 | 4.58599 | 10988 ft | 335 kts | 331° |
| 2026-04-28 17:01 | 52.55975 | 4.56493 | 11159 ft | 357 kts | 330° |
| 2026-04-28 17:02 | 52.58117 | 4.54200 | 11504 ft | 374 kts | 329° |
| 2026-04-28 17:02 | 52.59603 | 4.52595 | 11888 ft | 382 kts | 330° |
| 2026-04-28 17:02 | 52.62564 | 4.49376 | 12920 ft | 388 kts | 329° |
| 2026-04-28 17:02 | 52.64822 | 4.46911 | 13756 ft | 391 kts | 329° |
| 2026-04-28 17:03 | 52.69421 | 4.41891 | 15222 ft | 399 kts | 330° |
| 2026-04-28 17:03 | 52.71738 | 4.39354 | 16004 ft | 400 kts | 329° |
| 2026-04-28 17:03 | 52.73927 | 4.36537 | 16613 ft | 410 kts | 318° |
| 2026-04-28 17:04 | 52.77391 | 4.28941 | 18077 ft | 421 kts | 301° |
| 2026-04-28 17:04 | 52.78802 | 4.24681 | 18707 ft | 426 kts | 300° |
| 2026-04-28 17:05 | 52.81670 | 4.16001 | 19908 ft | 433 kts | 301° |
| 2026-04-28 17:05 | 52.83130 | 4.11606 | 20441 ft | 439 kts | 302° |
| 2026-04-28 17:05 | 52.84611 | 4.07174 | 21055 ft | 442 kts | 302° |
| 2026-04-28 17:06 | 52.87630 | 3.98165 | 22052 ft | 454 kts | 302° |
| 2026-04-28 17:06 | 52.89144 | 3.93644 | 22667 ft | 456 kts | 302° |
| 2026-04-28 17:06 | 52.92229 | 3.84392 | 23884 ft | 461 kts | 302° |
| 2026-04-28 17:07 | 52.93784 | 3.79715 | 24342 ft | 465 kts | 302° |
| 2026-04-28 17:07 | 52.95351 | 3.74997 | 24744 ft | 469 kts | 303° |
| 2026-04-28 17:07 | 52.96926 | 3.70245 | 25196 ft | 472 kts | 303° |
| 2026-04-28 17:07 | 52.98515 | 3.65445 | 25618 ft | 476 kts | 303° |
| 2026-04-28 17:08 | 53.00114 | 3.60611 | 26028 ft | 480 kts | 303° |
| 2026-04-28 17:08 | 53.01703 | 3.55801 | 26424 ft | 484 kts | 303° |
| 2026-04-28 17:08 | 53.03330 | 3.50887 | 26723 ft | 489 kts | 304° |
| 2026-04-28 17:08 | 53.04983 | 3.45910 | 27070 ft | 494 kts | 304° |
| 2026-04-28 17:09 | 53.06645 | 3.40892 | 27466 ft | 496 kts | 304° |
| 2026-04-28 17:09 | 53.08300 | 3.35841 | 27877 ft | 500 kts | 302° |
| 2026-04-28 17:09 | 53.09749 | 3.30535 | 28222 ft | 508 kts | 296° |
| 2026-04-28 17:09 | 53.10908 | 3.24943 | 28568 ft | 516 kts | 290° |
| 2026-04-28 17:10 | 53.11738 | 3.19094 | 28898 ft | 521 kts | 286° |
| 2026-04-28 17:10 | 53.12476 | 3.13251 | 29209 ft | 525 kts | 286° |
| 2026-04-28 17:10 | 53.13222 | 3.07281 | 29508 ft | 528 kts | 286° |
| 2026-04-28 17:10 | 53.13980 | 3.01286 | 29764 ft | 532 kts | 286° |
| 2026-04-28 17:11 | 53.14757 | 2.95243 | 30023 ft | 535 kts | 287° |
| 2026-04-28 17:11 | 53.15547 | 2.89171 | 30408 ft | 535 kts | 287° |
| 2026-04-28 17:11 | 53.16334 | 2.83138 | 30820 ft | 533 kts | 287° |
| 2026-04-28 17:11 | 53.17118 | 2.77110 | 31271 ft | 530 kts | 287° |
| 2026-04-28 17:12 | 53.17893 | 2.71124 | 31690 ft | 528 kts | 287° |
| 2026-04-28 17:12 | 53.18665 | 2.65139 | 32065 ft | 527 kts | 287° |
| 2026-04-28 17:12 | 53.19431 | 2.59175 | 32403 ft | 526 kts | 287° |
| 2026-04-28 17:12 | 53.20183 | 2.53290 | 32728 ft | 526 kts | 287° |
| 2026-04-28 17:13 | 53.20943 | 2.47316 | 32994 ft | 527 kts | 287° |
| 2026-04-28 17:13 | 53.21695 | 2.41336 | 33305 ft | 526 kts | 287° |
| 2026-04-28 17:13 | 53.22439 | 2.35366 | 33669 ft | 525 kts | 287° |
| 2026-04-28 17:13 | 53.23177 | 2.29412 | 34011 ft | 523 kts | 287° |
| 2026-04-28 17:14 | 53.23908 | 2.23489 | 34409 ft | 520 kts | 287° |
| 2026-04-28 17:14 | 53.24639 | 2.17565 | 34373 ft | 523 kts | 287° |
| 2026-04-28 17:14 | 53.26085 | 2.05774 | 34370 ft | 520 kts | 287° |
| 2026-04-28 17:15 | 53.27521 | 1.93956 | 34391 ft | 519 kts | 287° |
| 2026-04-28 17:15 | 53.28937 | 1.82210 | 34389 ft | 520 kts | 287° |
| 2026-04-28 17:16 | 53.30351 | 1.70360 | 34391 ft | 520 kts | 287° |
| 2026-04-28 17:16 | 53.31748 | 1.58567 | 34392 ft | 521 kts | 287° |
| 2026-04-28 17:17 | 53.33174 | 1.46688 | 34384 ft | 520 kts | 288° |
| 2026-04-28 17:17 | 53.34882 | 1.34942 | 34407 ft | 519 kts | 290° |
| 2026-04-28 17:18 | 53.36656 | 1.23216 | 34408 ft | 521 kts | 290° |
| 2026-04-28 17:18 | 53.38365 | 1.11500 | 34410 ft | 522 kts | 289° |
| 2026-04-28 17:19 | 53.40046 | 0.99664 | 34398 ft | 523 kts | 289° |
| 2026-04-28 17:19 | 53.41715 | 0.87802 | 34405 ft | 523 kts | 289° |
| 2026-04-28 17:20 | 53.43094 | 0.77945 | 34409 ft | 523 kts | 289° |
| 2026-04-28 17:20 | 53.45026 | 0.64053 | 34413 ft | 523 kts | 289° |
| 2026-04-28 17:21 | 53.46655 | 0.52229 | 34413 ft | 523 kts | 289° |
| 2026-04-28 17:22 | 53.49098 | 0.34362 | 34418 ft | 523 kts | 289° |
| 2026-04-28 17:22 | 53.50724 | 0.22442 | 34418 ft | 524 kts | 289° |
| 2026-04-28 17:23 | 53.53127 | 0.04623 | 34418 ft | 524 kts | 288° |
| 2026-04-28 17:23 | 53.54702 | -0.07350 | 34419 ft | 525 kts | 288° |
| 2026-04-28 17:24 | 53.56265 | -0.19337 | 34432 ft | 525 kts | 288° |
| 2026-04-28 17:24 | 53.57823 | -0.31332 | 34429 ft | 525 kts | 288° |
| 2026-04-28 17:25 | 53.60133 | -0.49277 | 34426 ft | 525 kts | 288° |
| 2026-04-28 17:26 | 53.61667 | -0.61299 | 34432 ft | 525 kts | 288° |
| 2026-04-28 17:26 | 53.63187 | -0.73319 | 34421 ft | 525 kts | 288° |
| 2026-04-28 17:27 | 53.64707 | -0.85433 | 34420 ft | 525 kts | 288° |
| 2026-04-28 17:27 | 53.66205 | -0.97470 | 34422 ft | 525 kts | 288° |
| 2026-04-28 17:28 | 53.67693 | -1.09517 | 34412 ft | 524 kts | 287° |
| 2026-04-28 17:28 | 53.69893 | -1.27505 | 34428 ft | 524 kts | 287° |
| 2026-04-28 17:29 | 53.71354 | -1.39575 | 34424 ft | 525 kts | 287° |
| 2026-04-28 17:30 | 53.73461 | -1.57711 | 34398 ft | 525 kts | 286° |
| 2026-04-28 17:30 | 53.75454 | -1.75864 | 34423 ft | 523 kts | 286° |
| 2026-04-28 17:31 | 53.77391 | -1.93910 | 34421 ft | 522 kts | 286° |
| 2026-04-28 17:32 | 53.79314 | -2.11997 | 34414 ft | 521 kts | 285° |
| 2026-04-28 17:32 | 53.80581 | -2.24060 | 34414 ft | 521 kts | 285° |
| 2026-04-28 17:33 | 53.81835 | -2.36124 | 34417 ft | 521 kts | 285° |
| 2026-04-28 17:33 | 53.82869 | -2.46168 | 34422 ft | 521 kts | 285° |
| 2026-04-28 17:34 | 53.84301 | -2.60223 | 34414 ft | 522 kts | 285° |
| 2026-04-28 17:34 | 53.85518 | -2.72313 | 34414 ft | 520 kts | 285° |
| 2026-04-28 17:35 | 53.86722 | -2.84396 | 34399 ft | 520 kts | 285° |
| 2026-04-28 17:35 | 53.87905 | -2.96394 | 34393 ft | 519 kts | 284° |
| 2026-04-28 17:36 | 53.89082 | -3.08459 | 34396 ft | 519 kts | 284° |
| 2026-04-28 17:36 | 53.90247 | -3.20531 | 34405 ft | 518 kts | 284° |
| 2026-04-28 17:37 | 53.91400 | -3.32592 | 34412 ft | 518 kts | 284° |
| 2026-04-28 17:37 | 53.92688 | -3.44579 | 34416 ft | 513 kts | 291° |
| 2026-04-28 17:38 | 53.95056 | -3.55770 | 34412 ft | 503 kts | 301° |
| 2026-04-28 17:38 | 53.98353 | -3.66122 | 34428 ft | 497 kts | 306° |
| 2026-04-28 17:39 | 54.01777 | -3.76307 | 34420 ft | 496 kts | 306° |
| 2026-04-28 17:40 | 54.06839 | -3.91600 | 34426 ft | 497 kts | 305° |
| 2026-04-28 17:40 | 54.10196 | -4.01880 | 34434 ft | 496 kts | 305° |
| 2026-04-28 17:41 | 54.13540 | -4.12181 | 34434 ft | 497 kts | 305° |
| 2026-04-28 17:41 | 54.16873 | -4.22487 | 34436 ft | 497 kts | 305° |
| 2026-04-28 17:42 | 54.20198 | -4.32803 | 34442 ft | 495 kts | 304° |
| 2026-04-28 17:42 | 54.23484 | -4.43051 | 34443 ft | 495 kts | 304° |
| 2026-04-28 17:43 | 54.26784 | -4.53377 | 34440 ft | 495 kts | 304° |
| 2026-04-28 17:43 | 54.30073 | -4.63715 | 34444 ft | 494 kts | 304° |
| 2026-04-28 17:44 | 54.33351 | -4.74061 | 34442 ft | 494 kts | 304° |
| 2026-04-28 17:44 | 54.36593 | -4.84340 | 34440 ft | 494 kts | 303° |
| 2026-04-28 17:45 | 54.39847 | -4.94703 | 34423 ft | 493 kts | 303° |
| 2026-04-28 17:45 | 54.43088 | -5.05063 | 34446 ft | 492 kts | 303° |
| 2026-04-28 17:46 | 54.46314 | -5.15427 | 34455 ft | 491 kts | 303° |
| 2026-04-28 17:46 | 54.49507 | -5.25727 | 34454 ft | 491 kts | 303° |
| 2026-04-28 17:47 | 54.52712 | -5.36107 | 34463 ft | 491 kts | 303° |
| 2026-04-28 17:47 | 54.55903 | -5.46488 | 34458 ft | 491 kts | 302° |
| 2026-04-28 17:48 | 54.59086 | -5.56892 | 34468 ft | 491 kts | 302° |
| 2026-04-28 17:48 | 54.62241 | -5.67245 | 34434 ft | 491 kts | 302° |
| 2026-04-28 17:49 | 54.65405 | -5.77675 | 34454 ft | 490 kts | 302° |
| 2026-04-28 17:49 | 54.68557 | -5.88115 | 34453 ft | 490 kts | 302° |
| 2026-04-28 17:50 | 54.71693 | -5.98543 | 34455 ft | 489 kts | 302° |
| 2026-04-28 17:50 | 54.74819 | -6.08985 | 34457 ft | 488 kts | 302° |
| 2026-04-28 17:51 | 54.77914 | -6.19370 | 34459 ft | 488 kts | 301° |
| 2026-04-28 17:51 | 54.81022 | -6.29842 | 34455 ft | 489 kts | 301° |
| 2026-04-28 17:52 | 54.84123 | -6.40335 | 34443 ft | 489 kts | 301° |
| 2026-04-28 17:52 | 54.88752 | -6.56093 | 34438 ft | 488 kts | 301° |
| 2026-04-28 17:53 | 54.91817 | -6.66587 | 34448 ft | 487 kts | 301° |
| 2026-04-28 17:53 | 54.94855 | -6.77030 | 34444 ft | 487 kts | 300° |
| 2026-04-28 17:54 | 54.97903 | -6.87556 | 34425 ft | 487 kts | 300° |
| 2026-04-28 17:54 | 55.00940 | -6.98093 | 34437 ft | 487 kts | 300° |
| 2026-04-28 17:55 | 55.03969 | -7.08649 | 34425 ft | 487 kts | 300° |
| 2026-04-28 17:55 | 55.06988 | -7.19216 | 34417 ft | 486 kts | 299° |
| 2026-04-28 17:56 | 55.09963 | -7.29681 | 34424 ft | 484 kts | 299° |
| 2026-04-28 17:56 | 55.12945 | -7.40217 | 34431 ft | 483 kts | 299° |
| 2026-04-28 17:57 | 55.15913 | -7.50749 | 34437 ft | 482 kts | 299° |
| 2026-04-28 17:57 | 55.18868 | -7.61281 | 34445 ft | 482 kts | 299° |
| 2026-04-28 17:58 | 55.21794 | -7.71759 | 34437 ft | 482 kts | 299° |
| 2026-04-28 17:58 | 55.24730 | -7.82319 | 34440 ft | 482 kts | 298° |
| 2026-04-28 17:59 | 55.27653 | -7.92885 | 34452 ft | 482 kts | 298° |
| 2026-04-28 17:59 | 55.30567 | -8.03463 | 34426 ft | 481 kts | 298° |
| 2026-04-28 18:00 | 55.33448 | -8.13972 | 34432 ft | 481 kts | 298° |
| 2026-04-28 18:00 | 55.36336 | -8.24555 | 34455 ft | 480 kts | 297° |
| 2026-04-28 18:01 | 55.39213 | -8.35145 | 34447 ft | 480 kts | 297° |
| 2026-04-28 18:01 | 55.42076 | -8.45736 | 34459 ft | 479 kts | 297° |
| 2026-04-28 18:02 | 55.44925 | -8.56321 | 34455 ft | 479 kts | 297° |
| 2026-04-28 18:02 | 55.47747 | -8.66854 | 34452 ft | 478 kts | 297° |
| 2026-04-28 18:03 | 55.50575 | -8.77460 | 34462 ft | 477 kts | 296° |
| 2026-04-28 18:03 | 55.53390 | -8.88068 | 34455 ft | 477 kts | 296° |
| 2026-04-28 18:04 | 55.56193 | -8.98678 | 34448 ft | 476 kts | 296° |
| 2026-04-28 18:04 | 55.58965 | -9.09220 | 34457 ft | 476 kts | 296° |
| 2026-04-28 18:05 | 55.61292 | -9.18110 | 34457 ft | 476 kts | 296° |
| 2026-04-28 18:05 | 55.64512 | -9.30467 | 34460 ft | 476 kts | 295° |
| 2026-04-28 18:06 | 55.67274 | -9.41121 | 34464 ft | 476 kts | 295° |
| 2026-04-28 18:06 | 55.70010 | -9.51727 | 34455 ft | 476 kts | 295° |
| 2026-04-28 18:07 | 55.72754 | -9.62413 | 34459 ft | 476 kts | 295° |
| 2026-04-28 18:07 | 55.75490 | -9.73119 | 34459 ft | 476 kts | 295° |
| 2026-04-28 18:08 | 55.78213 | -9.83828 | 34454 ft | 476 kts | 295° |
| 2026-04-28 18:08 | 55.80927 | -9.94546 | 34459 ft | 475 kts | 295° |
| 2026-04-28 18:09 | 55.83634 | -10.05198 | 34455 ft | 475 kts | 295° |
| 2026-04-28 18:09 | 55.86432 | -10.15857 | 34451 ft | 475 kts | 295° |
| 2026-04-28 18:10 | 55.89236 | -10.26520 | 34455 ft | 475 kts | 295° |
| 2026-04-28 18:10 | 55.92018 | -10.37197 | 34454 ft | 474 kts | 294° |
| 2026-04-28 18:11 | 55.94758 | -10.47796 | 34449 ft | 474 kts | 294° |
| 2026-04-28 18:11 | 55.97503 | -10.58470 | 34451 ft | 473 kts | 294° |
| 2026-04-28 18:12 | 56.00240 | -10.69160 | 34450 ft | 473 kts | 294° |
| 2026-04-28 18:12 | 56.02966 | -10.79864 | 34452 ft | 474 kts | 294° |
| 2026-04-28 18:13 | 56.05669 | -10.90525 | 34458 ft | 474 kts | 293° |
| 2026-04-28 18:13 | 56.08387 | -11.01296 | 34451 ft | 475 kts | 293° |
| 2026-04-28 18:14 | 56.11098 | -11.12092 | 34453 ft | 476 kts | 293° |
| 2026-04-28 18:14 | 56.13345 | -11.21082 | 34457 ft | 476 kts | 293° |
| 2026-04-28 18:15 | 56.16044 | -11.31929 | 34449 ft | 476 kts | 292° |
| 2026-04-28 18:15 | 56.19168 | -11.44548 | 34452 ft | 476 kts | 292° |
| 2026-04-28 18:16 | 56.21393 | -11.53580 | 34459 ft | 476 kts | 292° |
| 2026-04-28 18:16 | 56.24066 | -11.64481 | 34449 ft | 476 kts | 292° |
| 2026-04-28 18:17 | 56.26724 | -11.75379 | 34441 ft | 476 kts | 292° |
| 2026-04-28 18:17 | 56.29801 | -11.88060 | 34444 ft | 475 kts | 291° |
| 2026-04-28 18:18 | 56.32009 | -11.97202 | 34442 ft | 474 kts | 291° |
| 2026-04-28 18:18 | 56.34184 | -12.06248 | 34429 ft | 474 kts | 291° |
| 2026-04-28 18:19 | 56.37214 | -12.18917 | 34449 ft | 473 kts | 291° |
| 2026-04-28 18:19 | 56.39809 | -12.29821 | 34448 ft | 472 kts | 291° |
| 2026-04-28 18:20 | 56.42391 | -12.40732 | 34436 ft | 472 kts | 291° |
| 2026-04-28 18:20 | 56.44945 | -12.51575 | 34442 ft | 473 kts | 291° |
| 2026-04-28 18:21 | 56.47512 | -12.62528 | 34451 ft | 473 kts | 291° |
| 2026-04-28 18:21 | 56.50067 | -12.73488 | 34426 ft | 473 kts | 290° |
| 2026-04-28 18:22 | 56.52612 | -12.84458 | 34427 ft | 473 kts | 290° |
| 2026-04-28 18:22 | 56.55133 | -12.95382 | 34429 ft | 473 kts | 290° |
| 2026-04-28 18:23 | 56.57660 | -13.06391 | 34431 ft | 473 kts | 290° |
| 2026-04-28 18:23 | 56.60179 | -13.17420 | 34424 ft | 473 kts | 290° |
| 2026-04-28 18:24 | 56.62268 | -13.26608 | 34423 ft | 473 kts | 290° |
| 2026-04-28 18:24 | 56.65193 | -13.39544 | 34418 ft | 474 kts | 290° |
| 2026-04-28 18:25 | 56.67668 | -13.50554 | 34425 ft | 474 kts | 290° |
| 2026-04-28 18:26 | 56.71388 | -13.67207 | 34412 ft | 474 kts | 290° |
| 2026-04-28 18:26 | 56.73859 | -13.78346 | 34410 ft | 474 kts | 289° |
| 2026-04-28 18:27 | 56.76316 | -13.89479 | 34401 ft | 474 kts | 289° |
| 2026-04-28 18:27 | 56.78749 | -14.00561 | 34405 ft | 474 kts | 289° |
| 2026-04-28 18:28 | 56.81187 | -14.11730 | 34401 ft | 474 kts | 289° |
| 2026-04-28 18:28 | 56.83615 | -14.22909 | 34406 ft | 473 kts | 289° |
| 2026-04-28 18:29 | 56.86032 | -14.34099 | 34404 ft | 473 kts | 289° |
| 2026-04-28 18:29 | 56.88422 | -14.45224 | 34391 ft | 473 kts | 289° |
| 2026-04-28 18:30 | 56.90815 | -14.56426 | 34392 ft | 472 kts | 289° |
| 2026-04-28 18:30 | 56.93193 | -14.67617 | 34391 ft | 472 kts | 288° |
| 2026-04-28 18:31 | 56.95562 | -14.78827 | 34383 ft | 472 kts | 288° |
| 2026-04-28 18:31 | 56.97920 | -14.90045 | 34396 ft | 472 kts | 288° |
| 2026-04-28 18:32 | 57.00255 | -15.01200 | 34372 ft | 471 kts | 288° |
| 2026-04-28 18:32 | 57.02722 | -15.12358 | 34381 ft | 472 kts | 289° |
| 2026-04-28 18:33 | 57.05246 | -15.23484 | 34370 ft | 472 kts | 289° |
| 2026-04-28 18:33 | 57.07749 | -15.34619 | 34364 ft | 471 kts | 289° |
| 2026-04-28 18:34 | 57.10205 | -15.45681 | 34360 ft | 471 kts | 289° |
| 2026-04-28 18:34 | 57.12663 | -15.56840 | 34366 ft | 470 kts | 288° |
| 2026-04-28 18:35 | 57.15110 | -15.68014 | 34356 ft | 471 kts | 288° |
| 2026-04-28 18:35 | 57.17548 | -15.79205 | 34347 ft | 471 kts | 288° |
| 2026-04-28 18:36 | 57.19961 | -15.90335 | 34359 ft | 471 kts | 288° |
| 2026-04-28 18:36 | 57.22377 | -16.01543 | 34344 ft | 471 kts | 287° |
| 2026-04-28 18:37 | 57.24785 | -16.12775 | 34331 ft | 470 kts | 287° |
| 2026-04-28 18:37 | 57.27182 | -16.24016 | 34327 ft | 470 kts | 287° |
| 2026-04-28 18:38 | 57.29568 | -16.35263 | 34343 ft | 470 kts | 287° |
| 2026-04-28 18:38 | 57.31926 | -16.46443 | 34315 ft | 469 kts | 287° |
| 2026-04-28 18:39 | 57.34286 | -16.57696 | 34317 ft | 469 kts | 287° |
| 2026-04-28 18:39 | 57.36634 | -16.68951 | 34317 ft | 468 kts | 286° |
| 2026-04-28 18:40 | 57.38967 | -16.80199 | 34305 ft | 468 kts | 286° |
| 2026-04-28 18:40 | 57.41275 | -16.91386 | 34299 ft | 467 kts | 286° |
| 2026-04-28 18:41 | 57.43585 | -17.02645 | 34305 ft | 466 kts | 285° |
| 2026-04-28 18:41 | 57.45881 | -17.13902 | 34288 ft | 466 kts | 285° |
| 2026-04-28 18:42 | 57.48164 | -17.25155 | 34284 ft | 465 kts | 285° |
| 2026-04-28 18:42 | 57.50417 | -17.36329 | 34275 ft | 464 kts | 285° |
| 2026-04-28 18:43 | 57.52672 | -17.47568 | 34275 ft | 464 kts | 285° |
| 2026-04-28 18:43 | 57.54918 | -17.58832 | 34269 ft | 464 kts | 285° |
| 2026-04-28 18:44 | 57.57154 | -17.70112 | 34269 ft | 464 kts | 285° |
| 2026-04-28 18:44 | 57.60493 | -17.87068 | 34264 ft | 464 kts | 284° |
| 2026-04-28 18:45 | 57.62689 | -17.98305 | 34254 ft | 464 kts | 284° |
| 2026-04-28 18:45 | 57.64888 | -18.09619 | 34259 ft | 463 kts | 284° |
| 2026-04-28 18:46 | 57.67073 | -18.20924 | 34254 ft | 463 kts | 284° |
| 2026-04-28 18:46 | 57.69248 | -18.32247 | 34253 ft | 463 kts | 284° |
| 2026-04-28 18:47 | 57.71399 | -18.43511 | 34251 ft | 463 kts | 283° |
| 2026-04-28 18:47 | 57.73556 | -18.54874 | 34240 ft | 463 kts | 282° |
| 2026-04-28 18:48 | 57.75700 | -18.66229 | 34240 ft | 462 kts | 282° |
| 2026-04-28 18:48 | 57.77827 | -18.77561 | 34227 ft | 460 kts | 282° |
| 2026-04-28 18:49 | 57.79579 | -18.86953 | 34230 ft | 459 kts | 282° |
| 2026-04-28 18:49 | 57.82013 | -19.00076 | 34231 ft | 458 kts | 282° |
| 2026-04-28 18:50 | 57.84094 | -19.11369 | 34219 ft | 458 kts | 282° |
| 2026-04-28 18:50 | 57.86165 | -19.22676 | 34255 ft | 458 kts | 281° |
| 2026-04-28 18:51 | 57.88226 | -19.33994 | 34227 ft | 457 kts | 281° |
| 2026-04-28 18:51 | 57.90259 | -19.45221 | 34193 ft | 456 kts | 281° |
| 2026-04-28 18:52 | 57.92290 | -19.56506 | 34202 ft | 455 kts | 281° |
| 2026-04-28 18:52 | 57.94303 | -19.67764 | 34198 ft | 454 kts | 281° |
| 2026-04-28 18:53 | 57.96308 | -19.79044 | 34186 ft | 454 kts | 281° |
| 2026-04-28 18:53 | 57.98299 | -19.90307 | 34190 ft | 454 kts | 281° |
| 2026-04-28 18:54 | 58.00352 | -20.01496 | 34193 ft | 459 kts | 284° |
| 2026-04-28 18:54 | 58.03073 | -20.12492 | 34174 ft | 464 kts | 287° |
| 2026-04-28 18:55 | 58.05397 | -20.21630 | 34180 ft | 464 kts | 286° |
| 2026-04-28 18:55 | 58.08636 | -20.34510 | 34158 ft | 464 kts | 286° |
| 2026-04-28 18:56 | 58.11360 | -20.45480 | 34157 ft | 464 kts | 286° |
| 2026-04-28 18:56 | 58.14091 | -20.56556 | 34160 ft | 464 kts | 286° |
| 2026-04-28 18:57 | 58.16810 | -20.67648 | 34145 ft | 464 kts | 285° |
| 2026-04-28 18:57 | 58.19522 | -20.78754 | 34226 ft | 464 kts | 285° |
| 2026-04-28 18:58 | 58.22209 | -20.89824 | 34138 ft | 465 kts | 284° |
| 2026-04-28 18:58 | 58.24901 | -21.00968 | 34131 ft | 464 kts | 284° |
| 2026-04-28 18:59 | 58.27577 | -21.12095 | 34128 ft | 462 kts | 284° |
| 2026-04-28 18:59 | 58.30232 | -21.23195 | 34126 ft | 461 kts | 284° |
| 2026-04-28 19:00 | 58.32876 | -21.34305 | 34123 ft | 461 kts | 284° |
| 2026-04-28 19:00 | 58.35489 | -21.45353 | 34116 ft | 461 kts | 284° |
| 2026-04-28 19:01 | 58.38109 | -21.56488 | 34115 ft | 460 kts | 283° |
| 2026-04-28 19:01 | 58.40705 | -21.67543 | 34125 ft | 450 kts | 283° |
| 2026-04-28 19:02 | 58.43224 | -21.78302 | 34105 ft | 441 kts | 283° |
| 2026-04-28 19:02 | 58.45703 | -21.89024 | 34100 ft | 442 kts | 282° |
| 2026-04-28 19:03 | 58.48158 | -21.99702 | 34089 ft | 443 kts | 282° |
| 2026-04-28 19:03 | 58.50637 | -22.10515 | 34085 ft | 445 kts | 282° |
| 2026-04-28 19:04 | 58.53118 | -22.21380 | 34159 ft | 446 kts | 282° |
| 2026-04-28 19:04 | 58.55581 | -22.32213 | 34090 ft | 447 kts | 282° |
| 2026-04-28 19:05 | 58.58048 | -22.43107 | 34079 ft | 445 kts | 282° |
| 2026-04-28 19:05 | 58.60494 | -22.53979 | 34088 ft | 444 kts | 281° |
| 2026-04-28 19:06 | 58.62517 | -22.63014 | 34088 ft | 444 kts | 281° |
| 2026-04-28 19:06 | 58.65353 | -22.75756 | 34079 ft | 444 kts | 281° |
| 2026-04-28 19:07 | 58.67758 | -22.86617 | 34079 ft | 445 kts | 281° |
| 2026-04-28 19:07 | 58.70172 | -22.97583 | 34113 ft | 446 kts | 279° |
| 2026-04-28 19:08 | 58.72589 | -23.08626 | 34079 ft | 449 kts | 279° |
| 2026-04-28 19:08 | 58.75009 | -23.19721 | 34078 ft | 450 kts | 279° |
| 2026-04-28 19:09 | 58.77410 | -23.30782 | 34056 ft | 451 kts | 279° |
| 2026-04-28 19:09 | 58.79818 | -23.41942 | 34070 ft | 452 kts | 279° |
| 2026-04-28 19:10 | 58.82222 | -23.53149 | 34072 ft | 452 kts | 279° |
| 2026-04-28 19:10 | 58.84618 | -23.64376 | 34063 ft | 452 kts | 278° |
| 2026-04-28 19:11 | 58.86989 | -23.75548 | 34099 ft | 453 kts | 279° |
| 2026-04-28 19:11 | 58.89372 | -23.86844 | 34062 ft | 453 kts | 278° |
| 2026-04-28 19:12 | 58.91742 | -23.98128 | 34059 ft | 453 kts | 278° |
| 2026-04-28 19:12 | 58.94101 | -24.09423 | 34057 ft | 452 kts | 278° |
| 2026-04-28 19:13 | 58.96429 | -24.20640 | 34090 ft | 451 kts | 278° |
| 2026-04-28 19:13 | 58.98764 | -24.31963 | 34062 ft | 453 kts | 278° |
| 2026-04-28 19:14 | 59.01095 | -24.43322 | 34057 ft | 454 kts | 278° |
| 2026-04-28 19:14 | 59.03423 | -24.54733 | 34055 ft | 456 kts | 278° |
| 2026-04-28 19:15 | 59.05746 | -24.66177 | 34057 ft | 456 kts | 278° |
| 2026-04-28 19:15 | 59.07673 | -24.75716 | 34040 ft | 456 kts | 278° |
| 2026-04-28 19:16 | 59.10352 | -24.89051 | 34040 ft | 455 kts | 278° |
| 2026-04-28 19:16 | 59.12643 | -25.00529 | 34044 ft | 454 kts | 278° |
| 2026-04-28 19:17 | 59.14919 | -25.12007 | 34077 ft | 454 kts | 278° |
| 2026-04-28 19:17 | 59.17172 | -25.23434 | 34048 ft | 454 kts | 278° |
| 2026-04-28 19:18 | 59.19426 | -25.34932 | 34035 ft | 454 kts | 278° |
| 2026-04-28 19:18 | 59.21671 | -25.46441 | 34025 ft | 453 kts | 278° |
| 2026-04-28 19:19 | 59.23902 | -25.57953 | 34040 ft | 453 kts | 278° |
| 2026-04-28 19:19 | 59.26106 | -25.69395 | 34041 ft | 453 kts | 277° |
| 2026-04-28 19:20 | 59.28313 | -25.80922 | 34039 ft | 452 kts | 277° |
| 2026-04-28 19:20 | 59.30510 | -25.92460 | 34026 ft | 452 kts | 277° |
| 2026-04-28 19:21 | 59.32697 | -26.04024 | 34109 ft | 454 kts | 278° |
| 2026-04-28 19:21 | 59.34884 | -26.15662 | 34049 ft | 456 kts | 278° |
| 2026-04-28 19:22 | 59.36703 | -26.25377 | 34047 ft | 457 kts | 278° |
| 2026-04-28 19:22 | 59.39235 | -26.38980 | 34045 ft | 457 kts | 278° |
| 2026-04-28 19:23 | 59.41402 | -26.50703 | 34040 ft | 457 kts | 278° |
| 2026-04-28 19:23 | 59.43557 | -26.62438 | 34033 ft | 457 kts | 278° |
| 2026-04-28 19:24 | 59.45685 | -26.74101 | 34032 ft | 456 kts | 277° |
| 2026-04-28 19:24 | 59.47814 | -26.85849 | 34043 ft | 457 kts | 278° |
| 2026-04-28 19:25 | 59.49941 | -26.97655 | 34031 ft | 459 kts | 279° |
| 2026-04-28 19:25 | 59.52063 | -27.09503 | 34029 ft | 459 kts | 279° |
| 2026-04-28 19:26 | 59.54164 | -27.21299 | 34025 ft | 460 kts | 278° |
| 2026-04-28 19:26 | 59.56269 | -27.33201 | 34015 ft | 460 kts | 278° |
| 2026-04-28 19:27 | 59.58364 | -27.45122 | 34010 ft | 460 kts | 278° |
| 2026-04-28 19:27 | 59.60449 | -27.57058 | 34063 ft | 460 kts | 278° |
| 2026-04-28 19:28 | 59.62511 | -27.68953 | 33998 ft | 461 kts | 279° |
| 2026-04-28 19:28 | 59.64577 | -27.80934 | 33996 ft | 461 kts | 279° |
| 2026-04-28 19:29 | 59.66288 | -27.90915 | 33986 ft | 461 kts | 279° |
| 2026-04-28 19:29 | 59.68677 | -28.04951 | 33987 ft | 460 kts | 278° |
| 2026-04-28 19:30 | 59.70695 | -28.16892 | 33991 ft | 460 kts | 278° |
| 2026-04-28 19:30 | 59.72714 | -28.28918 | 33979 ft | 460 kts | 278° |
| 2026-04-28 19:31 | 59.74721 | -28.40954 | 34030 ft | 460 kts | 278° |
| 2026-04-28 19:31 | 59.76721 | -28.53032 | 33991 ft | 462 kts | 278° |
| 2026-04-28 19:32 | 59.78715 | -28.65147 | 33968 ft | 462 kts | 278° |
| 2026-04-28 19:32 | 59.80684 | -28.77193 | 33994 ft | 461 kts | 278° |
| 2026-04-28 19:33 | 59.82655 | -28.89339 | 33954 ft | 462 kts | 278° |
| 2026-04-28 19:33 | 59.84615 | -29.01494 | 33949 ft | 461 kts | 278° |
| 2026-04-28 19:34 | 59.86550 | -29.13576 | 33952 ft | 461 kts | 278° |
| 2026-04-28 19:34 | 59.88486 | -29.25756 | 33962 ft | 462 kts | 278° |
| 2026-04-28 19:35 | 59.90413 | -29.37968 | 33945 ft | 463 kts | 278° |
| 2026-04-28 19:35 | 59.92333 | -29.50210 | 33936 ft | 463 kts | 278° |
| 2026-04-28 19:36 | 59.94241 | -29.62462 | 33922 ft | 462 kts | 278° |
| 2026-04-28 19:36 | 59.96123 | -29.74641 | 33940 ft | 463 kts | 278° |
| 2026-04-28 19:37 | 59.97691 | -29.84842 | 33913 ft | 463 kts | 278° |
| 2026-04-28 19:37 | 59.99754 | -29.99247 | 33906 ft | 457 kts | 273° |
| 2026-04-28 19:38 | 60.00495 | -30.11700 | 33920 ft | 449 kts | 266° |
| 2026-04-28 19:38 | 60.00904 | -30.24076 | 33887 ft | 449 kts | 266° |
| 2026-04-28 19:39 | 60.01327 | -30.36538 | 33893 ft | 449 kts | 266° |
| 2026-04-28 19:39 | 60.01754 | -30.48997 | 33893 ft | 449 kts | 266° |
| 2026-04-28 19:40 | 60.02173 | -30.61455 | 33890 ft | 449 kts | 267° |
| 2026-04-28 19:40 | 60.02582 | -30.73921 | 33874 ft | 449 kts | 267° |
| 2026-04-28 19:41 | 60.02975 | -30.86289 | 33874 ft | 449 kts | 267° |
| 2026-04-28 19:41 | 60.03360 | -30.98751 | 33871 ft | 449 kts | 267° |
| 2026-04-28 19:42 | 60.03732 | -31.11214 | 33870 ft | 449 kts | 267° |
| 2026-04-28 19:42 | 60.04032 | -31.21570 | 33879 ft | 450 kts | 267° |
| 2026-04-28 19:43 | 60.04440 | -31.36099 | 33863 ft | 450 kts | 267° |
| 2026-04-28 19:43 | 60.04777 | -31.48589 | 33865 ft | 450 kts | 267° |
| 2026-04-28 19:44 | 60.05104 | -31.61098 | 33857 ft | 450 kts | 267° |
| 2026-04-28 19:44 | 60.05419 | -31.73607 | 33837 ft | 450 kts | 267° |
| 2026-04-28 19:45 | 60.05720 | -31.86031 | 33839 ft | 450 kts | 266° |
| 2026-04-28 19:45 | 60.06011 | -31.98537 | 33837 ft | 450 kts | 266° |
| 2026-04-28 19:46 | 60.06290 | -32.11043 | 33820 ft | 450 kts | 266° |
| 2026-04-28 19:46 | 60.06557 | -32.23547 | 33824 ft | 449 kts | 267° |
| 2026-04-28 19:47 | 60.06812 | -32.36038 | 33854 ft | 450 kts | 266° |
| 2026-04-28 19:47 | 60.07054 | -32.48496 | 33829 ft | 451 kts | 266° |
| 2026-04-28 19:48 | 60.07286 | -32.61039 | 33799 ft | 451 kts | 266° |
| 2026-04-28 19:48 | 60.07507 | -32.73579 | 33800 ft | 450 kts | 266° |
| 2026-04-28 19:49 | 60.07715 | -32.86114 | 33805 ft | 450 kts | 266° |
| 2026-04-28 19:49 | 60.07911 | -32.98562 | 33805 ft | 450 kts | 266° |
| 2026-04-28 19:50 | 60.08183 | -33.17346 | 33790 ft | 450 kts | 266° |
| 2026-04-28 19:51 | 60.08350 | -33.29885 | 33786 ft | 450 kts | 266° |
| 2026-04-28 19:51 | 60.08505 | -33.42430 | 33786 ft | 450 kts | 266° |
| 2026-04-28 19:52 | 60.08648 | -33.54911 | 33779 ft | 452 kts | 266° |
| 2026-04-28 19:52 | 60.08779 | -33.67512 | 33776 ft | 453 kts | 266° |
| 2026-04-28 19:53 | 60.08899 | -33.80125 | 33782 ft | 453 kts | 266° |
| 2026-04-28 19:53 | 60.09008 | -33.92738 | 33753 ft | 453 kts | 266° |
| 2026-04-28 19:54 | 60.09104 | -34.05326 | 33747 ft | 452 kts | 266° |
| 2026-04-28 19:54 | 60.09188 | -34.17826 | 33760 ft | 451 kts | 266° |
| 2026-04-28 19:55 | 60.09260 | -34.30391 | 33752 ft | 451 kts | 266° |
| 2026-04-28 19:55 | 60.09320 | -34.42942 | 33740 ft | 450 kts | 266° |
| 2026-04-28 19:56 | 60.09368 | -34.55483 | 33740 ft | 450 kts | 266° |
| 2026-04-28 19:56 | 60.09403 | -34.67935 | 33750 ft | 450 kts | 266° |
| 2026-04-28 19:57 | 60.09428 | -34.80465 | 33746 ft | 450 kts | 266° |
| 2026-04-28 19:57 | 60.09441 | -34.92988 | 33729 ft | 449 kts | 266° |
| 2026-04-28 19:58 | 60.09442 | -35.05489 | 33729 ft | 449 kts | 266° |
| 2026-04-28 19:58 | 60.09431 | -35.17920 | 33739 ft | 449 kts | 266° |
| 2026-04-28 19:59 | 60.09408 | -35.30435 | 33732 ft | 449 kts | 266° |
| 2026-04-28 19:59 | 60.09373 | -35.42953 | 33747 ft | 449 kts | 266° |
| 2026-04-28 20:00 | 60.09326 | -35.55473 | 33739 ft | 449 kts | 266° |
| 2026-04-28 20:00 | 60.09269 | -35.67907 | 33744 ft | 449 kts | 266° |
| 2026-04-28 20:01 | 60.09199 | -35.80411 | 33739 ft | 450 kts | 266° |
| 2026-04-28 20:01 | 60.09117 | -35.92958 | 33732 ft | 451 kts | 266° |
| 2026-04-28 20:02 | 60.09023 | -36.05518 | 33722 ft | 451 kts | 266° |
| 2026-04-28 20:02 | 60.08917 | -36.18084 | 33725 ft | 451 kts | 265° |
| 2026-04-28 20:03 | 60.08800 | -36.30570 | 33711 ft | 451 kts | 265° |
| 2026-04-28 20:03 | 60.08671 | -36.43138 | 33718 ft | 451 kts | 265° |
| 2026-04-28 20:04 | 60.08529 | -36.55689 | 33719 ft | 451 kts | 265° |
| 2026-04-28 20:04 | 60.08376 | -36.68251 | 33720 ft | 451 kts | 265° |
| 2026-04-28 20:05 | 60.08212 | -36.80723 | 33706 ft | 451 kts | 265° |
| 2026-04-28 20:05 | 60.08035 | -36.93272 | 33709 ft | 451 kts | 265° |
| 2026-04-28 20:06 | 60.07845 | -37.05837 | 33727 ft | 452 kts | 266° |
| 2026-04-28 20:06 | 60.07644 | -37.18429 | 33703 ft | 453 kts | 265° |
| 2026-04-28 20:07 | 60.07431 | -37.30939 | 33699 ft | 453 kts | 265° |
| 2026-04-28 20:07 | 60.07205 | -37.43560 | 33697 ft | 454 kts | 265° |
| 2026-04-28 20:08 | 60.06967 | -37.56188 | 33709 ft | 454 kts | 265° |
| 2026-04-28 20:08 | 60.06719 | -37.68735 | 33697 ft | 454 kts | 265° |
| 2026-04-28 20:09 | 60.06457 | -37.81362 | 33696 ft | 454 kts | 265° |
| 2026-04-28 20:09 | 60.06183 | -37.93962 | 33696 ft | 453 kts | 265° |
| 2026-04-28 20:10 | 60.05898 | -38.06552 | 33705 ft | 452 kts | 265° |
| 2026-04-28 20:10 | 60.05600 | -38.19144 | 33694 ft | 454 kts | 265° |
| 2026-04-28 20:11 | 60.05292 | -38.31673 | 33693 ft | 454 kts | 265° |
| 2026-04-28 20:11 | 60.04969 | -38.44300 | 33696 ft | 454 kts | 265° |
| 2026-04-28 20:12 | 60.04635 | -38.56936 | 33682 ft | 455 kts | 265° |
| 2026-04-28 20:12 | 60.04287 | -38.69579 | 33706 ft | 455 kts | 265° |
| 2026-04-28 20:13 | 60.03929 | -38.82205 | 33685 ft | 454 kts | 265° |
| 2026-04-28 20:13 | 60.03562 | -38.94709 | 33688 ft | 453 kts | 265° |
| 2026-04-28 20:14 | 60.03180 | -39.07285 | 33700 ft | 452 kts | 265° |
| 2026-04-28 20:14 | 60.02788 | -39.19838 | 33692 ft | 452 kts | 265° |
| 2026-04-28 20:15 | 60.02383 | -39.32385 | 33696 ft | 453 kts | 265° |
| 2026-04-28 20:15 | 60.01969 | -39.44870 | 33697 ft | 453 kts | 265° |
| 2026-04-28 20:16 | 60.01540 | -39.57438 | 33677 ft | 454 kts | 265° |
| 2026-04-28 20:16 | 60.01099 | -39.70022 | 33686 ft | 454 kts | 265° |
| 2026-04-28 20:17 | 60.00647 | -39.82609 | 33680 ft | 454 kts | 265° |
| 2026-04-28 20:17 | 60.00163 | -39.95188 | 33684 ft | 454 kts | 263° |
| 2026-04-28 20:18 | 59.98933 | -40.07449 | 33682 ft | 454 kts | 253° |
| 2026-04-28 20:18 | 59.97043 | -40.19468 | 33680 ft | 454 kts | 253° |
| 2026-04-28 20:19 | 59.95171 | -40.31454 | 33669 ft | 449 kts | 254° |
| 2026-04-28 20:19 | 59.93326 | -40.43307 | 33691 ft | 446 kts | 254° |
| 2026-04-28 20:20 | 59.91495 | -40.55034 | 33709 ft | 447 kts | 254° |
| 2026-04-28 20:20 | 59.89630 | -40.66904 | 33684 ft | 451 kts | 254° |
| 2026-04-28 20:21 | 59.87733 | -40.78898 | 33707 ft | 456 kts | 254° |
| 2026-04-28 20:21 | 59.85813 | -40.90940 | 33684 ft | 453 kts | 254° |
| 2026-04-28 20:22 | 59.83934 | -41.02632 | 33715 ft | 443 kts | 254° |
| 2026-04-28 20:22 | 59.82062 | -41.14219 | 33700 ft | 441 kts | 253° |
| 2026-04-28 20:23 | 59.80172 | -41.25852 | 33717 ft | 443 kts | 253° |
| 2026-04-28 20:23 | 59.78257 | -41.37555 | 33731 ft | 447 kts | 253° |
| 2026-04-28 20:24 | 59.76335 | -41.49221 | 33708 ft | 449 kts | 253° |
| 2026-04-28 20:24 | 59.74389 | -41.60948 | 33719 ft | 446 kts | 254° |
| 2026-04-28 20:25 | 59.72445 | -41.72593 | 33737 ft | 443 kts | 253° |
| 2026-04-28 20:25 | 59.70492 | -41.84209 | 33757 ft | 444 kts | 254° |
| 2026-04-28 20:26 | 59.68534 | -41.95783 | 33752 ft | 444 kts | 253° |
| 2026-04-28 20:26 | 59.66578 | -42.07284 | 33759 ft | 443 kts | 253° |
| 2026-04-28 20:27 | 59.64599 | -42.18845 | 33771 ft | 441 kts | 253° |
| 2026-04-28 20:27 | 59.62618 | -42.30349 | 33770 ft | 444 kts | 253° |
| 2026-04-28 20:28 | 59.60614 | -42.41912 | 33815 ft | 447 kts | 254° |
| 2026-04-28 20:28 | 59.58604 | -42.53427 | 33791 ft | 447 kts | 254° |
| 2026-04-28 20:29 | 59.56570 | -42.65010 | 33811 ft | 445 kts | 253° |
| 2026-04-28 20:29 | 59.54538 | -42.76511 | 33807 ft | 444 kts | 254° |
| 2026-04-28 20:30 | 59.52495 | -42.87998 | 33831 ft | 444 kts | 253° |
| 2026-04-28 20:30 | 59.50447 | -42.99456 | 33841 ft | 443 kts | 253° |
| 2026-04-28 20:31 | 59.48405 | -43.10806 | 33850 ft | 442 kts | 253° |
| 2026-04-28 20:31 | 59.46340 | -43.22214 | 33845 ft | 443 kts | 253° |
| 2026-04-28 20:32 | 59.44265 | -43.33613 | 33851 ft | 443 kts | 253° |
| 2026-04-28 20:32 | 59.42180 | -43.44993 | 33858 ft | 444 kts | 253° |
| 2026-04-28 20:33 | 59.40094 | -43.56301 | 33867 ft | 443 kts | 253° |
| 2026-04-28 20:33 | 59.37986 | -43.67671 | 33902 ft | 443 kts | 253° |
| 2026-04-28 20:34 | 59.35870 | -43.79022 | 33895 ft | 443 kts | 253° |
| 2026-04-28 20:34 | 59.33743 | -43.90356 | 33908 ft | 443 kts | 253° |
| 2026-04-28 20:35 | 59.31610 | -44.01660 | 33916 ft | 443 kts | 252° |
| 2026-04-28 20:35 | 59.29477 | -44.12893 | 33896 ft | 443 kts | 252° |
| 2026-04-28 20:36 | 59.27312 | -44.24240 | 33943 ft | 448 kts | 253° |
| 2026-04-28 20:36 | 59.25111 | -44.35709 | 33949 ft | 453 kts | 252° |
| 2026-04-28 20:37 | 59.22888 | -44.47214 | 33958 ft | 451 kts | 252° |
| 2026-04-28 20:37 | 59.20686 | -44.58537 | 33961 ft | 447 kts | 252° |
| 2026-04-28 20:38 | 59.18474 | -44.69851 | 33988 ft | 447 kts | 252° |
| 2026-04-28 20:38 | 59.16242 | -44.81230 | 33992 ft | 453 kts | 253° |
| 2026-04-28 20:39 | 59.13965 | -44.92754 | 34005 ft | 458 kts | 252° |
| 2026-04-28 20:39 | 59.11674 | -45.04265 | 33997 ft | 459 kts | 252° |
| 2026-04-28 20:40 | 59.09369 | -45.15778 | 34012 ft | 454 kts | 252° |
| 2026-04-28 20:40 | 59.07074 | -45.27187 | 34023 ft | 452 kts | 253° |
| 2026-04-28 20:41 | 59.04776 | -45.38553 | 34014 ft | 452 kts | 252° |
| 2026-04-28 20:41 | 59.02465 | -45.49923 | 34040 ft | 455 kts | 252° |
| 2026-04-28 20:42 | 59.00140 | -45.61292 | 34064 ft | 458 kts | 252° |
| 2026-04-28 20:42 | 58.97773 | -45.72798 | 34075 ft | 461 kts | 252° |
| 2026-04-28 20:43 | 58.95381 | -45.84355 | 34062 ft | 463 kts | 252° |
| 2026-04-28 20:43 | 58.92975 | -45.95913 | 34076 ft | 463 kts | 252° |
| 2026-04-28 20:44 | 58.90582 | -46.07343 | 34067 ft | 460 kts | 252° |
| 2026-04-28 20:44 | 58.88180 | -46.18751 | 34085 ft | 457 kts | 252° |
| 2026-04-28 20:45 | 58.85779 | -46.30099 | 34082 ft | 455 kts | 252° |
| 2026-04-28 20:45 | 58.83377 | -46.41389 | 34101 ft | 454 kts | 252° |
| 2026-04-28 20:46 | 58.80986 | -46.52570 | 34100 ft | 454 kts | 252° |
| 2026-04-28 20:46 | 58.78568 | -46.63811 | 34104 ft | 453 kts | 252° |
| 2026-04-28 20:47 | 58.76143 | -46.75025 | 34112 ft | 453 kts | 252° |
| 2026-04-28 20:47 | 58.73707 | -46.86226 | 34129 ft | 453 kts | 252° |
| 2026-04-28 20:48 | 58.71263 | -46.97405 | 34128 ft | 454 kts | 252° |
| 2026-04-28 20:48 | 58.68821 | -47.08516 | 34140 ft | 454 kts | 252° |
| 2026-04-28 20:49 | 58.66351 | -47.19694 | 34089 ft | 454 kts | 252° |
| 2026-04-28 20:49 | 58.63876 | -47.30835 | 34142 ft | 453 kts | 252° |
| 2026-04-28 20:50 | 58.61394 | -47.41949 | 34147 ft | 453 kts | 252° |
| 2026-04-28 20:50 | 58.58907 | -47.53027 | 34146 ft | 452 kts | 252° |
| 2026-04-28 20:51 | 58.56426 | -47.64019 | 34153 ft | 452 kts | 252° |
| 2026-04-28 20:51 | 58.53922 | -47.75060 | 34153 ft | 452 kts | 252° |
| 2026-04-28 20:52 | 58.51410 | -47.86067 | 34160 ft | 450 kts | 252° |
| 2026-04-28 20:52 | 58.49322 | -47.95184 | 34154 ft | 450 kts | 252° |
| 2026-04-28 20:53 | 58.45134 | -48.13349 | 34168 ft | 449 kts | 252° |
| 2026-04-28 20:53 | 58.42605 | -48.24242 | 34169 ft | 449 kts | 252° |
| 2026-04-28 20:54 | 58.40493 | -48.33298 | 34170 ft | 449 kts | 252° |
| 2026-04-28 20:54 | 58.37945 | -48.44168 | 34165 ft | 448 kts | 252° |
| 2026-04-28 20:55 | 58.34982 | -48.56745 | 34174 ft | 447 kts | 252° |
| 2026-04-28 20:55 | 58.32424 | -48.67541 | 34177 ft | 447 kts | 252° |
| 2026-04-28 20:56 | 58.30295 | -48.76492 | 34179 ft | 447 kts | 252° |
| 2026-04-28 20:56 | 58.27722 | -48.87256 | 34180 ft | 447 kts | 252° |
| 2026-04-28 20:57 | 58.25139 | -48.98005 | 34147 ft | 447 kts | 252° |
| 2026-04-28 20:57 | 58.22553 | -49.08713 | 34170 ft | 446 kts | 253° |
| 2026-04-28 20:58 | 58.19981 | -49.19315 | 34187 ft | 445 kts | 253° |
| 2026-04-28 20:58 | 58.17386 | -49.29964 | 34184 ft | 445 kts | 252° |
| 2026-04-28 20:59 | 58.14782 | -49.40591 | 34183 ft | 445 kts | 252° |
| 2026-04-28 20:59 | 58.12174 | -49.51189 | 34187 ft | 445 kts | 252° |
| 2026-04-28 21:00 | 58.09553 | -49.61783 | 34188 ft | 445 kts | 252° |
| 2026-04-28 21:00 | 58.06942 | -49.72294 | 34191 ft | 445 kts | 252° |
| 2026-04-28 21:01 | 58.04303 | -49.82867 | 34191 ft | 445 kts | 252° |
| 2026-04-28 21:01 | 58.01654 | -49.93432 | 34193 ft | 446 kts | 252° |
| 2026-04-28 21:02 | 57.99314 | -50.04075 | 34187 ft | 437 kts | 260° |
| 2026-04-28 21:02 | 57.97675 | -50.15065 | 34142 ft | 436 kts | 262° |
| 2026-04-28 21:03 | 57.96002 | -50.26005 | 34191 ft | 434 kts | 261° |
| 2026-04-28 21:03 | 57.94313 | -50.36887 | 34195 ft | 432 kts | 261° |
| 2026-04-28 21:04 | 57.92621 | -50.47713 | 34196 ft | 430 kts | 261° |
| 2026-04-28 21:04 | 57.90939 | -50.58420 | 34198 ft | 429 kts | 261° |
| 2026-04-28 21:05 | 57.89241 | -50.69167 | 34202 ft | 428 kts | 261° |
| 2026-04-28 21:05 | 57.87535 | -50.79898 | 34202 ft | 429 kts | 261° |
| 2026-04-28 21:06 | 57.85824 | -50.90574 | 34194 ft | 426 kts | 262° |
| 2026-04-28 21:06 | 57.84112 | -51.01207 | 34204 ft | 425 kts | 262° |
| 2026-04-28 21:07 | 57.82408 | -51.11731 | 34204 ft | 424 kts | 262° |
| 2026-04-28 21:07 | 57.80685 | -51.22302 | 34206 ft | 424 kts | 262° |
| 2026-04-28 21:08 | 57.78954 | -51.32861 | 34208 ft | 424 kts | 262° |
| 2026-04-28 21:08 | 57.77214 | -51.43411 | 34210 ft | 423 kts | 262° |
| 2026-04-28 21:09 | 57.75480 | -51.53844 | 34192 ft | 420 kts | 262° |
| 2026-04-28 21:09 | 57.73741 | -51.64253 | 34203 ft | 418 kts | 262° |
| 2026-04-28 21:10 | 57.72001 | -51.74621 | 34210 ft | 417 kts | 262° |
| 2026-04-28 21:10 | 57.70256 | -51.84954 | 34213 ft | 416 kts | 262° |
| 2026-04-28 21:11 | 57.68505 | -51.95271 | 34216 ft | 416 kts | 262° |
| 2026-04-28 21:11 | 57.66755 | -52.05519 | 34210 ft | 417 kts | 262° |
| 2026-04-28 21:12 | 57.64981 | -52.15843 | 34148 ft | 418 kts | 262° |
| 2026-04-28 21:12 | 57.63202 | -52.26137 | 34207 ft | 417 kts | 262° |
| 2026-04-28 21:13 | 57.61411 | -52.36448 | 34214 ft | 418 kts | 262° |
| 2026-04-28 21:13 | 57.59608 | -52.46767 | 34216 ft | 419 kts | 262° |
| 2026-04-28 21:14 | 57.57807 | -52.57012 | 34215 ft | 419 kts | 262° |
| 2026-04-28 21:14 | 57.55986 | -52.67310 | 34214 ft | 418 kts | 262° |
| 2026-04-28 21:15 | 57.54161 | -52.77574 | 34217 ft | 418 kts | 262° |
| 2026-04-28 21:15 | 57.52328 | -52.87821 | 34212 ft | 416 kts | 261° |
| 2026-04-28 21:16 | 57.50493 | -52.98038 | 34217 ft | 417 kts | 261° |
| 2026-04-28 21:16 | 57.48645 | -53.08264 | 34219 ft | 418 kts | 261° |
| 2026-04-28 21:17 | 57.46799 | -53.18428 | 34218 ft | 418 kts | 261° |
| 2026-04-28 21:17 | 57.44929 | -53.28666 | 34217 ft | 419 kts | 261° |
| 2026-04-28 21:18 | 57.43048 | -53.38902 | 34217 ft | 419 kts | 261° |
| 2026-04-28 21:18 | 57.41159 | -53.49134 | 34173 ft | 419 kts | 261° |
| 2026-04-28 21:19 | 57.39273 | -53.59289 | 34219 ft | 420 kts | 260° |
| 2026-04-28 21:19 | 57.37351 | -53.69581 | 34218 ft | 420 kts | 260° |
| 2026-04-28 21:20 | 57.35442 | -53.79753 | 34220 ft | 421 kts | 260° |
| 2026-04-28 21:20 | 57.33511 | -53.89985 | 34220 ft | 421 kts | 260° |
| 2026-04-28 21:21 | 57.31570 | -54.00210 | 34219 ft | 421 kts | 260° |
| 2026-04-28 21:21 | 57.29637 | -54.10346 | 34159 ft | 421 kts | 259° |
| 2026-04-28 21:22 | 57.27684 | -54.20531 | 34208 ft | 420 kts | 259° |
| 2026-04-28 21:22 | 57.25723 | -54.30710 | 34215 ft | 421 kts | 259° |
| 2026-04-28 21:23 | 57.23748 | -54.40904 | 34217 ft | 422 kts | 259° |
| 2026-04-28 21:23 | 57.21758 | -54.51124 | 34219 ft | 423 kts | 259° |
| 2026-04-28 21:24 | 57.19757 | -54.61340 | 34217 ft | 424 kts | 258° |
| 2026-04-28 21:24 | 57.17761 | -54.71480 | 34214 ft | 423 kts | 258° |
| 2026-04-28 21:25 | 57.15747 | -54.81655 | 34219 ft | 422 kts | 258° |
| 2026-04-28 21:25 | 57.13726 | -54.91821 | 34219 ft | 423 kts | 258° |
| 2026-04-28 21:26 | 57.11691 | -55.02005 | 34214 ft | 424 kts | 258° |
| 2026-04-28 21:26 | 57.09641 | -55.12208 | 34211 ft | 425 kts | 257° |
| 2026-04-28 21:27 | 57.07595 | -55.22335 | 34208 ft | 426 kts | 257° |
| 2026-04-28 21:27 | 57.05527 | -55.32523 | 34211 ft | 426 kts | 257° |
| 2026-04-28 21:28 | 57.03448 | -55.42711 | 34185 ft | 426 kts | 257° |
| 2026-04-28 21:28 | 57.01360 | -55.52892 | 34207 ft | 427 kts | 257° |
| 2026-04-28 21:29 | 56.99273 | -55.63022 | 34212 ft | 428 kts | 257° |
| 2026-04-28 21:29 | 56.97159 | -55.73223 | 34203 ft | 428 kts | 256° |
| 2026-04-28 21:30 | 56.95039 | -55.83403 | 34213 ft | 428 kts | 256° |
| 2026-04-28 21:30 | 56.92911 | -55.93569 | 34200 ft | 427 kts | 256° |
| 2026-04-28 21:31 | 56.90794 | -56.03635 | 34199 ft | 426 kts | 256° |
| 2026-04-28 21:31 | 56.88657 | -56.13747 | 34204 ft | 426 kts | 256° |
| 2026-04-28 21:32 | 56.86514 | -56.23840 | 34202 ft | 426 kts | 256° |
| 2026-04-28 21:32 | 56.84364 | -56.33912 | 34203 ft | 426 kts | 256° |
| 2026-04-28 21:33 | 56.82220 | -56.43909 | 34204 ft | 426 kts | 256° |
| 2026-04-28 21:33 | 56.80053 | -56.53967 | 34202 ft | 426 kts | 256° |
| 2026-04-28 21:34 | 56.77878 | -56.64010 | 34159 ft | 426 kts | 255° |
| 2026-04-28 21:34 | 56.75692 | -56.74060 | 34188 ft | 427 kts | 255° |
| 2026-04-28 21:35 | 56.73508 | -56.84055 | 34202 ft | 428 kts | 255° |
| 2026-04-28 21:35 | 56.71295 | -56.94130 | 34202 ft | 429 kts | 255° |
| 2026-04-28 21:36 | 56.68682 | -57.03993 | 34192 ft | 439 kts | 246° |
| 2026-04-28 21:36 | 56.65379 | -57.13352 | 34196 ft | 440 kts | 245° |
| 2026-04-28 21:37 | 56.62117 | -57.22653 | 34181 ft | 439 kts | 245° |
| 2026-04-28 21:37 | 56.58848 | -57.31996 | 34188 ft | 438 kts | 245° |
| 2026-04-28 21:38 | 56.55577 | -57.41322 | 34195 ft | 438 kts | 245° |
| 2026-04-28 21:38 | 56.52295 | -57.50638 | 34193 ft | 438 kts | 244° |
| 2026-04-28 21:39 | 56.49012 | -57.59923 | 34193 ft | 438 kts | 244° |
| 2026-04-28 21:39 | 56.45739 | -57.69140 | 34166 ft | 438 kts | 244° |
| 2026-04-28 21:40 | 56.42444 | -57.78385 | 34181 ft | 438 kts | 244° |
| 2026-04-28 21:40 | 56.39144 | -57.87613 | 34194 ft | 438 kts | 244° |
| 2026-04-28 21:41 | 56.35835 | -57.96835 | 34192 ft | 437 kts | 243° |
| 2026-04-28 21:41 | 56.33082 | -58.06310 | 34185 ft | 422 kts | 259° |
| 2026-04-28 21:42 | 56.32283 | -58.16689 | 34190 ft | 419 kts | 274° |
| 2026-04-28 21:42 | 56.32996 | -58.27084 | 34193 ft | 420 kts | 279° |
| 2026-04-28 21:43 | 56.33816 | -58.37565 | 34175 ft | 424 kts | 279° |
| 2026-04-28 21:43 | 56.34605 | -58.48129 | 34184 ft | 427 kts | 279° |
| 2026-04-28 21:44 | 56.35363 | -58.58666 | 34180 ft | 426 kts | 278° |
| 2026-04-28 21:44 | 56.36103 | -58.69185 | 34172 ft | 418 kts | 278° |
| 2026-04-28 21:45 | 56.36822 | -58.79527 | 34176 ft | 416 kts | 278° |
| 2026-04-28 21:45 | 56.37534 | -58.89883 | 34174 ft | 416 kts | 278° |
| 2026-04-28 21:46 | 56.38234 | -59.00196 | 34173 ft | 417 kts | 278° |
| 2026-04-28 21:46 | 56.38931 | -59.10589 | 34167 ft | 418 kts | 278° |
| 2026-04-28 21:47 | 56.39621 | -59.21028 | 34170 ft | 419 kts | 278° |
| 2026-04-28 21:47 | 56.40302 | -59.31461 | 34169 ft | 419 kts | 278° |
| 2026-04-28 21:48 | 56.40971 | -59.41847 | 34162 ft | 419 kts | 278° |
| 2026-04-28 21:48 | 56.41084 | -59.43609 | 34160 ft | 419 kts | 278° |